createdAt,value
2023-03-13T00:01:41.601Z,3.54
2023-03-13T00:04:11.039Z,3.55
2023-03-13T00:06:41.206Z,3.61
2023-03-13T00:09:15.448Z,3.63
2023-03-13T00:11:44.701Z,3.65
2023-03-13T00:14:13.796Z,3.63
2023-03-13T00:16:42.673Z,3.70
2023-03-13T00:19:12.222Z,3.71
2023-03-13T00:21:41.389Z,3.78
2023-03-13T00:24:13.358Z,3.81
2023-03-13T00:26:42.176Z,3.83
2023-03-13T00:29:11.367Z,3.87
2023-03-13T00:31:40.393Z,3.91
2023-03-13T00:34:10.885Z,3.95
2023-03-13T00:36:39.690Z,3.98
2023-03-13T00:39:08.766Z,3.98
2023-03-13T00:41:39.475Z,3.99
2023-03-13T00:44:08.560Z,3.99
2023-03-13T00:46:38.131Z,3.98
2023-03-13T00:49:07.639Z,4.02
2023-03-13T00:51:36.703Z,4.04
2023-03-13T00:54:05.998Z,4.08
2023-03-13T00:56:35.531Z,4.12
2023-03-13T00:59:06.063Z,4.16
2023-03-13T01:01:37.851Z,4.17
2023-03-13T01:04:10.237Z,4.18
2023-03-13T01:06:42.951Z,4.21
2023-03-13T01:09:15.459Z,4.23
2023-03-13T01:11:46.406Z,4.22
2023-03-13T01:14:20.674Z,4.28
2023-03-13T01:16:49.711Z,4.22
2023-03-13T01:19:19.073Z,4.24
2023-03-13T01:21:48.465Z,4.23
2023-03-13T01:24:19.283Z,4.25
2023-03-13T01:26:48.448Z,4.25
2023-03-13T01:29:19.583Z,4.28
2023-03-13T01:31:48.736Z,4.27
2023-03-13T01:34:17.802Z,4.29
2023-03-13T01:36:50.535Z,4.29
2023-03-13T01:39:19.721Z,4.30
2023-03-13T01:41:48.662Z,4.33
2023-03-13T01:44:25.565Z,4.35
2023-03-13T01:46:55.468Z,4.30
2023-03-13T01:49:33.446Z,4.33
2023-03-13T01:52:32.168Z,4.29
2023-03-13T01:55:21.985Z,4.22
2023-03-13T01:57:56.030Z,4.20
2023-03-13T02:00:34.146Z,4.19
2023-03-13T02:03:12.289Z,4.23
2023-03-13T02:05:43.838Z,4.25
2023-03-13T02:08:20.130Z,4.30
2023-03-13T02:10:55.324Z,4.25
2023-03-13T02:13:24.329Z,4.24
2023-03-13T02:15:55.621Z,4.17
2023-03-13T02:18:26.064Z,4.21
2023-03-13T02:21:09.333Z,4.26
2023-03-13T02:23:52.155Z,4.19
2023-03-13T02:26:23.038Z,4.14
2023-03-13T02:28:52.005Z,4.24
2023-03-13T02:31:22.485Z,4.15
2023-03-13T02:33:51.432Z,4.11
2023-03-13T02:36:22.588Z,4.17
2023-03-13T02:38:59.853Z,4.22
2023-03-13T02:41:32.585Z,4.23
2023-03-13T02:44:02.220Z,4.27
2023-03-13T02:46:32.492Z,4.34
2023-03-13T02:49:20.985Z,4.26
2023-03-13T02:51:50.423Z,4.20
2023-03-13T02:54:24.277Z,4.25
2023-03-13T02:57:00.193Z,4.21
2023-03-13T02:59:29.344Z,4.20
2023-03-13T03:01:59.675Z,4.27
2023-03-13T03:04:28.849Z,4.26
2023-03-13T03:06:59.063Z,4.26
2023-03-13T03:09:27.909Z,4.26
2023-03-13T03:12:02.934Z,4.26
2023-03-13T03:14:32.266Z,4.24
2023-03-13T03:17:01.368Z,4.23
2023-03-13T03:19:30.162Z,4.29
2023-03-13T03:21:59.432Z,4.27
2023-03-13T03:24:28.662Z,4.34
2023-03-13T03:26:57.813Z,4.33
2023-03-13T03:29:32.774Z,4.26
2023-03-13T03:32:02.218Z,4.13
2023-03-13T03:34:32.859Z,4.11
2023-03-13T03:37:02.180Z,4.14
2023-03-13T03:39:31.367Z,4.09
2023-03-13T03:42:01.180Z,4.16
2023-03-13T03:44:31.834Z,4.10
2023-03-13T03:47:02.559Z,4.06
2023-03-13T03:49:36.208Z,4.05
2023-03-13T03:52:05.830Z,4.07
2023-03-13T03:54:38.826Z,4.07
2023-03-13T03:57:08.228Z,4.02
2023-03-13T03:59:39.985Z,4.05
2023-03-13T04:02:11.141Z,4.10
2023-03-13T04:04:42.074Z,4.07
2023-03-13T04:07:14.430Z,4.05
2023-03-13T04:09:43.302Z,4.11
2023-03-13T04:12:19.413Z,4.19
2023-03-13T04:14:51.020Z,4.24
2023-03-13T04:17:20.299Z,4.21
2023-03-13T04:19:49.291Z,4.17
2023-03-13T04:22:18.567Z,4.02
2023-03-13T04:24:52.005Z,4.14
2023-03-13T04:27:23.137Z,4.15
2023-03-13T04:29:54.607Z,4.11
2023-03-13T04:32:58.797Z,4.02
2023-03-13T04:35:47.964Z,4.00
2023-03-13T04:38:36.359Z,3.93
2023-03-13T04:41:43.542Z,3.84
2023-03-13T04:44:26.223Z,3.87
2023-03-13T04:47:19.766Z,3.82
2023-03-13T04:50:02.073Z,3.92
2023-03-13T04:52:47.550Z,3.88
2023-03-13T04:55:29.040Z,3.97
2023-03-13T04:58:17.784Z,4.08
2023-03-13T05:01:06.271Z,4.05
2023-03-13T05:03:55.087Z,4.05
2023-03-13T05:06:53.143Z,4.07
2023-03-13T05:09:42.166Z,4.06
2023-03-13T05:12:31.454Z,4.10
2023-03-13T05:15:11.491Z,4.07
2023-03-13T05:18:05.788Z,4.04
2023-03-13T05:20:54.477Z,4.13
2023-03-13T05:23:38.797Z,4.14
2023-03-13T05:26:25.297Z,4.21
2023-03-13T05:29:26.923Z,4.25
2023-03-13T05:32:14.230Z,4.26
2023-03-13T05:35:02.734Z,4.27
2023-03-13T05:38:01.746Z,4.35
2023-03-13T05:40:50.205Z,4.41
2023-03-13T05:43:39.267Z,4.45
2023-03-13T05:46:23.035Z,4.53
2023-03-13T05:49:21.282Z,4.48
2023-03-13T05:52:16.277Z,4.53
2023-03-13T05:54:57.965Z,4.47
2023-03-13T05:57:46.179Z,4.48
2023-03-13T06:00:41.016Z,4.54
2023-03-13T06:03:36.322Z,4.53
2023-03-13T06:06:06.501Z,4.51
2023-03-13T06:08:41.152Z,4.53
2023-03-13T06:11:11.364Z,4.61
2023-03-13T06:13:40.677Z,4.65
2023-03-13T06:16:22.375Z,4.67
2023-03-13T06:18:52.197Z,4.63
2023-03-13T06:21:21.244Z,4.67
2023-03-13T06:23:50.486Z,4.63
2023-03-13T06:26:20.673Z,4.67
2023-03-13T06:28:50.592Z,4.74
2023-03-13T06:31:19.968Z,4.70
2023-03-13T06:33:50.705Z,4.67
2023-03-13T06:36:19.567Z,4.73
2023-03-13T06:38:48.674Z,4.80
2023-03-13T06:41:17.788Z,4.87
2023-03-13T06:43:48.219Z,5.02
2023-03-13T06:46:20.976Z,5.05
2023-03-13T06:48:50.196Z,5.11
2023-03-13T06:51:21.731Z,5.17
2023-03-13T06:53:52.447Z,5.20
2023-03-13T06:56:22.006Z,5.22
2023-03-13T06:58:52.676Z,5.31
2023-03-13T07:01:21.553Z,5.29
2023-03-13T07:03:51.272Z,5.33
2023-03-13T07:06:20.456Z,5.37
2023-03-13T07:08:49.914Z,5.40
2023-03-13T07:11:19.017Z,5.39
2023-03-13T07:13:48.164Z,5.57
2023-03-13T07:16:18.360Z,5.58
2023-03-13T07:18:47.450Z,5.67
2023-03-13T07:21:16.736Z,5.72
2023-03-13T07:23:46.511Z,5.77
2023-03-13T07:26:17.514Z,5.82
2023-03-13T07:28:46.651Z,5.95
2023-03-13T07:31:19.070Z,6.05
2023-03-13T07:33:48.559Z,6.07
2023-03-13T07:36:17.671Z,6.13
2023-03-13T07:38:50.334Z,6.21
2023-03-13T07:41:19.590Z,6.29
2023-03-13T07:43:49.085Z,6.37
2023-03-13T07:46:21.798Z,6.41
2023-03-13T07:48:52.597Z,6.56
2023-03-13T07:51:36.826Z,6.62
2023-03-13T07:54:11.967Z,6.71
2023-03-13T07:56:41.711Z,6.81
2023-03-13T07:59:11.807Z,6.93
2023-03-13T08:01:42.025Z,6.92
2023-03-13T08:04:15.048Z,7.11
2023-03-13T08:06:44.080Z,7.25
2023-03-13T08:09:13.454Z,7.38
2023-03-13T08:11:44.477Z,7.37
2023-03-13T08:14:13.640Z,7.44
2023-03-13T08:16:43.857Z,7.52
2023-03-13T08:19:12.992Z,7.53
2023-03-13T08:21:41.733Z,7.56
2023-03-13T08:24:13.074Z,7.54
2023-03-13T08:26:43.826Z,7.60
2023-03-13T08:29:15.783Z,7.58
2023-03-13T08:31:48.606Z,7.75
2023-03-13T08:34:19.456Z,7.85
2023-03-13T08:36:48.579Z,8.03
2023-03-13T08:39:20.826Z,8.15
2023-03-13T08:41:49.864Z,8.31
2023-03-13T08:44:21.202Z,8.47
2023-03-13T08:46:51.505Z,8.57
2023-03-13T08:49:20.538Z,8.78
2023-03-13T08:51:49.332Z,9.05
2023-03-13T08:54:18.394Z,9.26
2023-03-13T08:56:47.278Z,9.52
2023-03-13T08:59:16.532Z,9.70
2023-03-13T09:01:45.358Z,9.91
2023-03-13T09:04:16.003Z,10.01
2023-03-13T09:06:44.926Z,10.27
2023-03-13T09:09:15.210Z,10.43
2023-03-13T09:11:44.050Z,10.61
2023-03-13T09:14:13.255Z,10.77
2023-03-13T09:16:42.066Z,10.96
2023-03-13T09:19:11.312Z,11.21
2023-03-13T09:21:41.546Z,11.35
2023-03-13T09:24:10.800Z,11.48
2023-03-13T09:26:42.704Z,11.52
2023-03-13T09:29:15.631Z,11.56
2023-03-13T09:31:44.452Z,11.60
2023-03-13T09:34:13.533Z,11.63
2023-03-13T09:36:43.714Z,11.65
2023-03-13T09:39:12.911Z,11.88
2023-03-13T09:41:53.363Z,12.02
2023-03-13T09:44:28.118Z,12.15
2023-03-13T09:47:05.113Z,12.19
2023-03-13T09:49:42.061Z,12.22
2023-03-13T09:52:19.719Z,12.31
2023-03-13T09:54:55.977Z,12.40
2023-03-13T09:57:35.231Z,12.48
2023-03-13T10:00:14.310Z,12.57
2023-03-13T10:02:48.752Z,12.64
2023-03-13T10:05:22.769Z,12.78
2023-03-13T10:07:59.263Z,12.86
2023-03-13T10:10:44.711Z,12.77
2023-03-13T10:13:23.883Z,12.73
2023-03-13T10:15:58.083Z,12.63
2023-03-13T10:18:28.226Z,12.51
2023-03-13T10:21:07.052Z,12.40
2023-03-13T10:23:45.990Z,12.24
2023-03-13T10:26:20.480Z,12.25
2023-03-13T10:28:51.395Z,12.03
2023-03-13T10:31:33.090Z,12.03
2023-03-13T10:34:14.212Z,12.07
2023-03-13T10:36:46.502Z,11.99
2023-03-13T10:39:20.842Z,12.05
2023-03-13T10:41:51.524Z,11.90
2023-03-13T10:44:22.994Z,11.89
2023-03-13T10:46:53.160Z,11.85
2023-03-13T10:49:25.219Z,11.88
2023-03-13T10:51:57.248Z,11.96
2023-03-13T10:54:29.788Z,11.93
2023-03-13T10:57:32.250Z,12.06
2023-03-13T11:00:06.483Z,12.05
2023-03-13T11:02:40.144Z,12.11
2023-03-13T11:05:42.575Z,12.30
2023-03-13T11:08:24.502Z,12.37
2023-03-13T11:10:59.415Z,12.44
2023-03-13T11:13:38.971Z,12.71
2023-03-13T11:16:23.340Z,12.81
2023-03-13T11:19:18.728Z,12.96
2023-03-13T11:22:07.826Z,13.07
2023-03-13T11:24:47.618Z,13.02
2023-03-13T11:27:30.932Z,13.52
2023-03-13T11:30:22.894Z,14.07
2023-03-13T11:32:57.391Z,14.38
2023-03-13T11:35:41.333Z,14.79
2023-03-13T11:38:21.281Z,14.93
2023-03-13T11:41:03.897Z,14.95
2023-03-13T11:44:07.905Z,15.00
2023-03-13T11:46:57.904Z,15.03
2023-03-13T11:50:03.902Z,15.02
2023-03-13T11:52:49.518Z,14.77
2023-03-13T11:55:46.837Z,14.86
2023-03-13T11:58:42.938Z,14.81
2023-03-13T12:01:17.622Z,14.52
2023-03-13T12:03:59.846Z,14.37
2023-03-13T12:06:34.033Z,14.33
2023-03-13T12:09:15.212Z,14.27
2023-03-13T12:12:03.363Z,14.15
2023-03-13T12:14:40.545Z,13.85
2023-03-13T12:17:17.021Z,13.76
2023-03-13T12:19:55.436Z,13.68
2023-03-13T12:22:34.029Z,13.51
2023-03-13T12:25:11.611Z,13.42
2023-03-13T12:27:46.850Z,13.42
2023-03-13T12:30:32.468Z,13.37
2023-03-13T12:33:18.653Z,13.29
2023-03-13T12:35:59.809Z,13.19
2023-03-13T12:38:37.569Z,12.94
2023-03-13T12:41:21.775Z,12.86
2023-03-13T12:44:07.183Z,12.70
2023-03-13T12:46:47.303Z,12.54
2023-03-13T12:49:55.121Z,12.29
2023-03-13T12:53:18.455Z,12.08
2023-03-13T12:56:10.143Z,11.90
2023-03-13T12:58:49.961Z,11.80
2023-03-13T13:01:33.269Z,11.71
2023-03-13T13:04:12.507Z,11.61
2023-03-13T13:07:01.871Z,11.55
2023-03-13T13:09:34.170Z,11.53
2023-03-13T13:12:05.242Z,11.43
2023-03-13T13:15:18.170Z,11.32
2023-03-13T13:18:00.153Z,11.25
2023-03-13T13:21:22.266Z,11.13
2023-03-13T13:23:54.265Z,11.05
2023-03-13T13:26:51.968Z,11.03
2023-03-13T13:29:58.053Z,11.02
2023-03-13T13:32:44.294Z,11.02
2023-03-13T13:35:38.222Z,10.94
2023-03-13T13:38:39.792Z,10.89
2023-03-13T13:41:38.135Z,10.85
2023-03-13T13:44:29.465Z,10.82
2023-03-13T13:47:02.146Z,10.74
2023-03-13T13:49:54.511Z,10.70
2023-03-13T13:52:42.345Z,10.65
2023-03-13T13:55:34.311Z,10.56
2023-03-13T13:58:07.642Z,10.56
2023-03-13T14:00:43.916Z,10.55
2023-03-13T14:03:23.331Z,10.52
2023-03-13T14:05:57.953Z,10.51
2023-03-13T14:08:30.820Z,10.44
2023-03-13T14:11:26.598Z,10.42
2023-03-13T14:14:15.582Z,10.44
2023-03-13T14:16:47.819Z,10.40
2023-03-13T14:19:30.134Z,10.35
2023-03-13T14:22:02.176Z,10.36
2023-03-13T14:24:31.359Z,10.27
2023-03-13T14:27:02.228Z,10.28
2023-03-13T14:29:31.303Z,10.32
2023-03-13T14:32:01.472Z,10.33
2023-03-13T14:34:32.629Z,10.36
2023-03-13T14:37:17.688Z,10.41
2023-03-13T14:39:48.848Z,10.46
2023-03-13T14:42:20.596Z,10.52
2023-03-13T14:44:50.547Z,10.54
2023-03-13T14:47:26.984Z,10.57
2023-03-13T14:50:01.897Z,10.56
2023-03-13T14:52:34.131Z,10.56
2023-03-13T14:55:07.948Z,10.46
2023-03-13T14:57:55.055Z,10.46
2023-03-13T15:00:37.252Z,10.40
2023-03-13T15:03:30.388Z,10.33
2023-03-13T15:06:18.380Z,10.37
2023-03-13T15:08:50.105Z,10.37
2023-03-13T15:11:30.453Z,10.34
2023-03-13T15:14:01.371Z,10.32
2023-03-13T15:16:31.110Z,10.32
2023-03-13T15:19:00.280Z,10.26
2023-03-13T15:21:32.408Z,10.26
2023-03-13T15:24:04.617Z,10.26
2023-03-13T15:26:33.448Z,10.25
2023-03-13T15:29:03.976Z,10.23
2023-03-13T15:31:33.479Z,10.23
2023-03-13T15:34:03.218Z,10.19
2023-03-13T15:36:33.546Z,10.20
2023-03-13T15:39:04.378Z,10.29
2023-03-13T15:41:33.210Z,10.23
2023-03-13T15:44:04.818Z,10.27
2023-03-13T15:46:34.447Z,10.24
2023-03-13T15:49:03.727Z,10.30
2023-03-13T15:51:33.460Z,10.36
2023-03-13T15:54:02.575Z,10.28
2023-03-13T15:56:38.107Z,10.23
2023-03-13T15:59:13.916Z,10.30
2023-03-13T16:01:46.815Z,10.29
2023-03-13T16:04:15.947Z,10.36
2023-03-13T16:06:44.786Z,10.39
2023-03-13T16:09:17.251Z,10.43
2023-03-13T16:11:46.288Z,10.46
2023-03-13T16:14:16.743Z,10.45
2023-03-13T16:16:45.558Z,10.50
2023-03-13T16:19:14.643Z,10.51
2023-03-13T16:21:48.391Z,10.54
2023-03-13T16:24:17.798Z,10.59
2023-03-13T16:26:47.033Z,10.51
2023-03-13T16:29:18.172Z,10.58
2023-03-13T16:31:47.204Z,10.55
2023-03-13T16:34:16.296Z,10.61
2023-03-13T16:36:45.509Z,10.59
2023-03-13T16:39:16.965Z,10.61
2023-03-13T16:41:45.771Z,10.62
2023-03-13T16:44:16.205Z,10.64
2023-03-13T16:46:59.252Z,10.57
2023-03-13T16:49:33.649Z,10.66
2023-03-13T16:52:02.604Z,10.63
2023-03-13T16:54:31.647Z,10.63
2023-03-13T16:57:04.383Z,10.69
2023-03-13T16:59:34.889Z,10.62
2023-03-13T17:02:03.817Z,10.56
2023-03-13T17:04:33.029Z,10.52
2023-03-13T17:07:03.854Z,10.55
2023-03-13T17:09:32.954Z,10.54
2023-03-13T17:12:01.744Z,10.58
2023-03-13T17:14:30.837Z,10.60
2023-03-13T17:17:01.072Z,10.64
2023-03-13T17:19:30.617Z,10.69
2023-03-13T17:21:59.436Z,10.70
2023-03-13T17:24:28.522Z,10.71
2023-03-13T17:26:57.700Z,10.74
2023-03-13T17:29:26.823Z,10.75
2023-03-13T17:31:55.648Z,10.87
2023-03-13T17:34:27.828Z,10.92
2023-03-13T17:36:57.139Z,10.95
2023-03-13T17:39:26.424Z,10.98
2023-03-13T17:41:55.239Z,10.93
2023-03-13T17:44:24.480Z,11.02
2023-03-13T17:46:53.821Z,11.00
2023-03-13T17:49:23.032Z,11.04
2023-03-13T17:51:53.268Z,11.06
2023-03-13T17:54:22.849Z,11.07
2023-03-13T17:56:52.327Z,11.10
2023-03-13T17:59:21.460Z,11.12
2023-03-13T18:01:50.320Z,11.16
2023-03-13T18:04:19.554Z,11.14
2023-03-13T18:06:50.493Z,11.21
2023-03-13T18:09:22.958Z,11.23
2023-03-13T18:11:51.928Z,11.26
2023-03-13T18:14:21.538Z,11.27
2023-03-13T18:16:52.299Z,11.29
2023-03-13T18:19:23.972Z,11.36
2023-03-13T18:21:56.469Z,11.33
2023-03-13T18:24:27.557Z,11.35
2023-03-13T18:26:56.443Z,11.38
2023-03-13T18:29:27.229Z,11.38
2023-03-13T18:31:58.760Z,11.36
2023-03-13T18:34:29.039Z,11.39
2023-03-13T18:37:03.733Z,11.38
2023-03-13T18:39:34.840Z,11.37
2023-03-13T18:42:03.720Z,11.40
2023-03-13T18:44:32.854Z,11.39
2023-03-13T18:47:01.749Z,11.33
2023-03-13T18:49:30.849Z,11.33
2023-03-13T18:51:59.645Z,11.42
2023-03-13T18:54:28.815Z,11.43
2023-03-13T18:56:59.083Z,11.45
2023-03-13T18:59:28.197Z,11.40
2023-03-13T19:01:57.121Z,11.44
2023-03-13T19:04:26.235Z,11.46
2023-03-13T19:06:55.068Z,11.49
2023-03-13T19:09:42.568Z,11.55
2023-03-13T19:12:15.559Z,11.50
2023-03-13T19:14:45.174Z,11.50
2023-03-13T19:17:22.998Z,11.57
2023-03-13T19:19:57.066Z,11.50
2023-03-13T19:22:27.511Z,11.50
2023-03-13T19:24:56.756Z,11.51
2023-03-13T19:27:27.004Z,11.59
2023-03-13T19:29:56.125Z,11.60
2023-03-13T19:32:24.925Z,11.50
2023-03-13T19:34:54.054Z,11.60
2023-03-13T19:37:22.867Z,11.62
2023-03-13T19:39:52.005Z,11.59
2023-03-13T19:42:20.873Z,11.57
2023-03-13T19:44:51.365Z,11.52
2023-03-13T19:47:20.204Z,11.59
2023-03-13T19:49:50.998Z,11.60
2023-03-13T19:52:19.944Z,11.62
2023-03-13T19:54:49.110Z,11.61
2023-03-13T19:57:18.127Z,11.66
2023-03-13T19:59:47.291Z,11.68
2023-03-13T20:02:17.708Z,11.60
2023-03-13T20:04:46.890Z,11.66
2023-03-13T20:07:15.730Z,11.68
2023-03-13T20:09:44.593Z,11.71
2023-03-13T20:12:16.062Z,11.84
2023-03-13T20:14:44.897Z,11.83
2023-03-13T20:17:14.106Z,11.87
2023-03-13T20:19:44.408Z,11.90
2023-03-13T20:22:13.738Z,11.89
2023-03-13T20:24:42.787Z,11.91
2023-03-13T20:27:12.177Z,11.93
2023-03-13T20:29:41.904Z,11.94
2023-03-13T20:32:11.590Z,11.94
2023-03-13T20:34:40.541Z,11.88
2023-03-13T20:37:10.993Z,11.97
2023-03-13T20:39:39.978Z,11.99
2023-03-13T20:42:09.626Z,11.97
2023-03-13T20:44:38.401Z,11.95
2023-03-13T20:47:07.470Z,11.99
2023-03-13T20:49:36.422Z,12.02
2023-03-13T20:52:05.918Z,11.96
2023-03-13T20:54:36.230Z,11.94
2023-03-13T20:57:05.921Z,11.95
2023-03-13T20:59:34.763Z,11.98
2023-03-13T21:02:03.902Z,11.98
2023-03-13T21:04:33.116Z,12.03
2023-03-13T21:07:04.602Z,12.02
2023-03-13T21:09:35.866Z,12.03
2023-03-13T21:12:05.715Z,11.95
2023-03-13T21:14:36.441Z,11.95
2023-03-13T21:17:05.652Z,11.97
2023-03-13T21:19:35.152Z,11.97
2023-03-13T21:22:04.263Z,12.03
2023-03-13T21:24:33.100Z,12.05
2023-03-13T21:27:03.675Z,11.97
2023-03-13T21:29:32.972Z,11.96
2023-03-13T21:32:02.209Z,11.98
2023-03-13T21:34:30.994Z,12.02
2023-03-13T21:37:00.057Z,11.95
2023-03-13T21:39:28.887Z,11.96
2023-03-13T21:41:58.007Z,11.93
2023-03-13T21:44:28.741Z,11.93
2023-03-13T21:46:57.844Z,11.94
2023-03-13T21:49:26.715Z,11.91
2023-03-13T21:51:57.259Z,11.92
2023-03-13T21:54:26.703Z,11.88
2023-03-13T21:56:57.129Z,11.84
2023-03-13T21:59:29.656Z,11.78
2023-03-13T22:01:58.824Z,11.79
2023-03-13T22:04:27.729Z,11.72
2023-03-13T22:06:56.880Z,11.69
2023-03-13T22:09:25.665Z,11.72
2023-03-13T22:11:54.759Z,11.63
2023-03-13T22:14:25.154Z,11.62
2023-03-13T22:16:55.875Z,11.65
2023-03-13T22:19:24.775Z,11.62
2023-03-13T22:21:56.584Z,11.59
2023-03-13T22:24:25.404Z,11.58
2023-03-13T22:26:54.477Z,11.59
2023-03-13T22:29:24.114Z,11.55
2023-03-13T22:31:53.200Z,11.62
2023-03-13T22:34:23.378Z,11.64
2023-03-13T22:36:52.657Z,11.64
2023-03-13T22:39:21.555Z,11.65
2023-03-13T22:41:50.732Z,11.66
2023-03-13T22:44:19.538Z,11.59
2023-03-13T22:46:48.703Z,11.65
2023-03-13T22:49:17.546Z,11.65
2023-03-13T22:51:48.061Z,11.64
2023-03-13T22:54:16.908Z,11.68
2023-03-13T22:56:46.024Z,11.64
2023-03-13T22:59:14.878Z,11.50
2023-03-13T23:01:44.074Z,11.51
2023-03-13T23:04:12.873Z,11.45
2023-03-13T23:06:42.601Z,11.39
2023-03-13T23:09:13.083Z,11.41
2023-03-13T23:11:42.179Z,11.35
2023-03-13T23:14:10.988Z,11.36
2023-03-13T23:16:40.218Z,11.38
2023-03-13T23:19:09.010Z,11.33
2023-03-13T23:21:38.164Z,11.24
2023-03-13T23:24:07.922Z,11.19
2023-03-13T23:26:38.798Z,11.22
2023-03-13T23:29:07.713Z,11.27
2023-03-13T23:31:36.781Z,11.13
2023-03-13T23:34:05.555Z,11.15
2023-03-13T23:36:34.775Z,11.13
2023-03-13T23:39:04.220Z,11.10
2023-03-13T23:41:33.271Z,11.04
2023-03-13T23:44:03.437Z,11.04
2023-03-13T23:46:32.604Z,10.99
2023-03-13T23:49:01.392Z,10.85
2023-03-13T23:51:30.467Z,10.85
2023-03-13T23:53:59.296Z,10.79
2023-03-13T23:56:29.661Z,10.81
2023-03-13T23:58:58.801Z,10.85
